sensor_id;sensor_type;location;lat;lon;timestamp;temperature;humidity
72604;DHT22;60645;56.968;24.196;2023-04-01T00:01:27;4.40;98.70
72604;DHT22;60645;56.968;24.196;2023-04-01T00:03:54;4.50;99.00
72604;DHT22;60645;56.968;24.196;2023-04-01T00:06:22;4.40;98.70
72604;DHT22;60645;56.968;24.196;2023-04-01T00:08:50;4.60;98.60
72604;DHT22;60645;56.968;24.196;2023-04-01T00:11:17;4.30;98.50
72604;DHT22;60645;56.968;24.196;2023-04-01T00:13:46;4.30;98.60
72604;DHT22;60645;56.968;24.196;2023-04-01T00:16:14;4.40;98.70
72604;DHT22;60645;56.968;24.196;2023-04-01T00:18:44;4.40;98.60
72604;DHT22;60645;56.968;24.196;2023-04-01T00:21:14;4.40;98.90
72604;DHT22;60645;56.968;24.196;2023-04-01T00:23:41;4.30;98.80
72604;DHT22;60645;56.968;24.196;2023-04-01T00:26:08;4.10;99.20
72604;DHT22;60645;56.968;24.196;2023-04-01T00:28:35;4.20;99.40
72604;DHT22;60645;56.968;24.196;2023-04-01T00:31:06;4.20;99.60
72604;DHT22;60645;56.968;24.196;2023-04-01T00:33:33;4.10;99.70
72604;DHT22;60645;56.968;24.196;2023-04-01T00:36:17;4.10;99.50
72604;DHT22;60645;56.968;24.196;2023-04-01T00:38:45;4.10;99.40
72604;DHT22;60645;56.968;24.196;2023-04-01T00:41:14;4.00;99.40
72604;DHT22;60645;56.968;24.196;2023-04-01T00:43:44;4.00;99.70
72604;DHT22;60645;56.968;24.196;2023-04-01T00:46:11;4.10;99.60
72604;DHT22;60645;56.968;24.196;2023-04-01T00:48:42;4.00;99.90
72604;DHT22;60645;56.968;24.196;2023-04-01T00:51:17;4.10;99.40
72604;DHT22;60645;56.968;24.196;2023-04-01T00:53:48;4.20;99.30
72604;DHT22;60645;56.968;24.196;2023-04-01T00:56:27;4.20;99.10
72604;DHT22;60645;56.968;24.196;2023-04-01T00:59:01;4.30;99.30
72604;DHT22;60645;56.968;24.196;2023-04-01T01:01:29;4.10;99.00
72604;DHT22;60645;56.968;24.196;2023-04-01T01:03:57;4.20;99.00
72604;DHT22;60645;56.968;24.196;2023-04-01T01:27:49;3.60;99.90
72604;DHT22;60645;56.968;24.196;2023-04-01T01:30:44;3.40;99.90
72604;DHT22;60645;56.968;24.196;2023-04-01T01:35:58;3.50;99.90
72604;DHT22;60645;56.968;24.196;2023-04-01T01:38:29;3.60;99.90
72604;DHT22;60645;56.968;24.196;2023-04-01T01:40:59;3.60;99.90
72604;DHT22;60645;56.968;24.196;2023-04-01T01:43:31;3.50;99.90
72604;DHT22;60645;56.968;24.196;2023-04-01T01:46:02;3.50;99.90
72604;DHT22;60645;56.968;24.196;2023-04-01T01:48:31;3.70;99.90
72604;DHT22;60645;56.968;24.196;2023-04-01T01:50:59;3.60;99.90
72604;DHT22;60645;56.968;24.196;2023-04-01T01:53:27;3.50;99.90
72604;DHT22;60645;56.968;24.196;2023-04-01T01:55:53;3.40;99.90
72604;DHT22;60645;56.968;24.196;2023-04-01T01:58:35;3.40;99.90
72604;DHT22;60645;56.968;24.196;2023-04-01T02:01:13;3.30;99.90
72604;DHT22;60645;56.968;24.196;2023-04-01T02:03:42;3.20;99.90
72604;DHT22;60645;56.968;24.196;2023-04-01T02:06:14;3.40;99.90
72604;DHT22;60645;56.968;24.196;2023-04-01T02:09:01;3.30;99.90
72604;DHT22;60645;56.968;24.196;2023-04-01T02:14:11;3.30;99.90
72604;DHT22;60645;56.968;24.196;2023-04-01T02:16:46;3.50;99.90
72604;DHT22;60645;56.968;24.196;2023-04-01T02:19:17;3.30;99.90
72604;DHT22;60645;56.968;24.196;2023-04-01T02:21:56;3.50;99.90
72604;DHT22;60645;56.968;24.196;2023-04-01T02:24:26;3.40;99.90
72604;DHT22;60645;56.968;24.196;2023-04-01T02:26:53;3.10;99.90
72604;DHT22;60645;56.968;24.196;2023-04-01T02:29:23;3.10;99.90
72604;DHT22;60645;56.968;24.196;2023-04-01T02:31:50;3.10;99.90
72604;DHT22;60645;56.968;24.196;2023-04-01T02:34:20;3.20;99.90
72604;DHT22;60645;56.968;24.196;2023-04-01T02:36:49;3.40;99.90
72604;DHT22;60645;56.968;24.196;2023-04-01T02:39:16;3.40;99.40
72604;DHT22;60645;56.968;24.196;2023-04-01T02:41:45;3.50;99.70
72604;DHT22;60645;56.968;24.196;2023-04-01T02:44:13;3.30;99.40
72604;DHT22;60645;56.968;24.196;2023-04-01T02:46:41;3.20;99.40
72604;DHT22;60645;56.968;24.196;2023-04-01T02:49:08;3.20;99.70
72604;DHT22;60645;56.968;24.196;2023-04-01T02:51:35;3.30;99.50
72604;DHT22;60645;56.968;24.196;2023-04-01T02:54:02;3.30;99.50
72604;DHT22;60645;56.968;24.196;2023-04-01T02:56:29;3.00;99.80
72604;DHT22;60645;56.968;24.196;2023-04-01T02:58:56;3.10;99.90
72604;DHT22;60645;56.968;24.196;2023-04-01T03:01:23;3.10;99.90
72604;DHT22;60645;56.968;24.196;2023-04-01T03:03:50;2.90;99.90
72604;DHT22;60645;56.968;24.196;2023-04-01T03:06:17;2.90;99.90
72604;DHT22;60645;56.968;24.196;2023-04-01T03:08:44;2.90;99.90
72604;DHT22;60645;56.968;24.196;2023-04-01T03:11:11;2.80;99.90
72604;DHT22;60645;56.968;24.196;2023-04-01T03:13:38;2.80;99.90
72604;DHT22;60645;56.968;24.196;2023-04-01T03:16:05;3.10;99.90
72604;DHT22;60645;56.968;24.196;2023-04-01T03:18:32;2.90;99.90
72604;DHT22;60645;56.968;24.196;2023-04-01T03:21:12;3.00;99.90
72604;DHT22;60645;56.968;24.196;2023-04-01T03:23:39;3.00;99.60
72604;DHT22;60645;56.968;24.196;2023-04-01T03:26:05;2.90;99.40
72604;DHT22;60645;56.968;24.196;2023-04-01T03:28:32;2.90;99.60
72604;DHT22;60645;56.968;24.196;2023-04-01T03:30:59;2.90;99.70
72604;DHT22;60645;56.968;24.196;2023-04-01T03:33:26;3.00;99.70
72604;DHT22;60645;56.968;24.196;2023-04-01T03:35:53;2.90;99.80
72604;DHT22;60645;56.968;24.196;2023-04-01T03:38:19;2.80;99.70
72604;DHT22;60645;56.968;24.196;2023-04-01T03:40:46;2.90;99.70
72604;DHT22;60645;56.968;24.196;2023-04-01T03:43:13;2.90;99.20
72604;DHT22;60645;56.968;24.196;2023-04-01T03:45:50;2.80;98.90
72604;DHT22;60645;56.968;24.196;2023-04-01T03:48:17;2.90;99.00
72604;DHT22;60645;56.968;24.196;2023-04-01T03:50:44;2.90;99.00
72604;DHT22;60645;56.968;24.196;2023-04-01T03:53:11;2.90;98.90
72604;DHT22;60645;56.968;24.196;2023-04-01T03:55:38;2.70;99.10
72604;DHT22;60645;56.968;24.196;2023-04-01T03:58:06;2.90;99.00
72604;DHT22;60645;56.968;24.196;2023-04-01T04:00:33;2.90;98.70
72604;DHT22;60645;56.968;24.196;2023-04-01T04:03:00;2.80;98.80
72604;DHT22;60645;56.968;24.196;2023-04-01T04:05:27;2.70;98.90
72604;DHT22;60645;56.968;24.196;2023-04-01T04:07:54;2.70;99.10
72604;DHT22;60645;56.968;24.196;2023-04-01T04:10:21;2.70;98.90
72604;DHT22;60645;56.968;24.196;2023-04-01T04:12:49;2.90;98.90
72604;DHT22;60645;56.968;24.196;2023-04-01T04:15:16;2.90;98.50
72604;DHT22;60645;56.968;24.196;2023-04-01T04:17:46;2.80;98.60
72604;DHT22;60645;56.968;24.196;2023-04-01T04:20:13;2.70;98.60
72604;DHT22;60645;56.968;24.196;2023-04-01T04:22:40;2.70;98.80
72604;DHT22;60645;56.968;24.196;2023-04-01T04:25:07;2.80;98.50
72604;DHT22;60645;56.968;24.196;2023-04-01T04:27:34;2.70;98.40
72604;DHT22;60645;56.968;24.196;2023-04-01T04:30:02;2.70;98.40
72604;DHT22;60645;56.968;24.196;2023-04-01T04:32:29;2.60;98.70
72604;DHT22;60645;56.968;24.196;2023-04-01T04:34:56;2.70;98.80
72604;DHT22;60645;56.968;24.196;2023-04-01T04:37:23;2.70;98.50
72604;DHT22;60645;56.968;24.196;2023-04-01T04:39:52;2.60;98.30
72604;DHT22;60645;56.968;24.196;2023-04-01T04:42:19;2.80;98.20
72604;DHT22;60645;56.968;24.196;2023-04-01T04:44:45;2.70;98.40
72604;DHT22;60645;56.968;24.196;2023-04-01T04:47:12;2.60;98.40
72604;DHT22;60645;56.968;24.196;2023-04-01T04:49:40;2.70;98.40
72604;DHT22;60645;56.968;24.196;2023-04-01T04:52:06;2.90;98.20
72604;DHT22;60645;56.968;24.196;2023-04-01T04:54:33;2.70;98.10
72604;DHT22;60645;56.968;24.196;2023-04-01T04:57:00;2.70;98.10
72604;DHT22;60645;56.968;24.196;2023-04-01T04:59:27;2.90;98.30
72604;DHT22;60645;56.968;24.196;2023-04-01T05:01:53;2.90;97.70
72604;DHT22;60645;56.968;24.196;2023-04-01T05:04:20;3.00;97.90
72604;DHT22;60645;56.968;24.196;2023-04-01T05:06:47;3.00;97.90
72604;DHT22;60645;56.968;24.196;2023-04-01T05:09:14;2.80;97.80
72604;DHT22;60645;56.968;24.196;2023-04-01T05:11:41;2.70;97.80
72604;DHT22;60645;56.968;24.196;2023-04-01T05:14:12;2.80;97.90
72604;DHT22;60645;56.968;24.196;2023-04-01T05:16:39;3.00;97.40
72604;DHT22;60645;56.968;24.196;2023-04-01T05:19:06;3.00;97.40
72604;DHT22;60645;56.968;24.196;2023-04-01T05:21:33;3.10;97.10
72604;DHT22;60645;56.968;24.196;2023-04-01T05:24:00;3.10;97.30
72604;DHT22;60645;56.968;24.196;2023-04-01T05:26:26;2.90;97.20
72604;DHT22;60645;56.968;24.196;2023-04-01T05:28:53;3.00;97.10
72604;DHT22;60645;56.968;24.196;2023-04-01T05:31:20;2.90;97.30
72604;DHT22;60645;56.968;24.196;2023-04-01T05:33:47;2.90;97.20
72604;DHT22;60645;56.968;24.196;2023-04-01T05:36:15;2.60;97.30
72604;DHT22;60645;56.968;24.196;2023-04-01T05:38:42;2.90;97.60
72604;DHT22;60645;56.968;24.196;2023-04-01T05:41:09;3.10;97.20
72604;DHT22;60645;56.968;24.196;2023-04-01T05:43:36;3.00;96.60
72604;DHT22;60645;56.968;24.196;2023-04-01T05:46:03;2.90;96.60
72604;DHT22;60645;56.968;24.196;2023-04-01T05:48:32;2.80;97.10
72604;DHT22;60645;56.968;24.196;2023-04-01T05:50:59;2.70;97.10
72604;DHT22;60645;56.968;24.196;2023-04-01T05:53:26;3.00;97.10
72604;DHT22;60645;56.968;24.196;2023-04-01T05:55:53;3.00;96.90
72604;DHT22;60645;56.968;24.196;2023-04-01T05:58:19;3.20;97.10
72604;DHT22;60645;56.968;24.196;2023-04-01T06:00:46;3.00;97.10
72604;DHT22;60645;56.968;24.196;2023-04-01T06:03:19;2.90;96.60
72604;DHT22;60645;56.968;24.196;2023-04-01T06:05:46;2.70;96.80
72604;DHT22;60645;56.968;24.196;2023-04-01T06:08:17;2.70;97.00
72604;DHT22;60645;56.968;24.196;2023-04-01T06:20:12;2.70;96.90
72604;DHT22;60645;56.968;24.196;2023-04-01T06:25:46;2.90;96.90
72604;DHT22;60645;56.968;24.196;2023-04-01T06:30:54;2.80;96.90
72604;DHT22;60645;56.968;24.196;2023-04-01T06:36:00;3.00;96.80
72604;DHT22;60645;56.968;24.196;2023-04-01T06:56:17;3.10;96.10
72604;DHT22;60645;56.968;24.196;2023-04-01T06:58:46;3.10;95.40
72604;DHT22;60645;56.968;24.196;2023-04-01T07:01:15;3.10;95.40
72604;DHT22;60645;56.968;24.196;2023-04-01T07:03:44;3.30;95.60
72604;DHT22;60645;56.968;24.196;2023-04-01T07:08:54;3.20;94.60
72604;DHT22;60645;56.968;24.196;2023-04-01T07:11:27;3.30;95.10
72604;DHT22;60645;56.968;24.196;2023-04-01T07:14:00;3.30;95.10
72604;DHT22;60645;56.968;24.196;2023-04-01T07:16:45;3.50;94.30
72604;DHT22;60645;56.968;24.196;2023-04-01T07:19:28;3.10;94.40
72604;DHT22;60645;56.968;24.196;2023-04-01T07:21:56;3.50;94.50
72604;DHT22;60645;56.968;24.196;2023-04-01T07:24:34;3.30;94.50
72604;DHT22;60645;56.968;24.196;2023-04-01T07:27:03;3.40;94.40
72604;DHT22;60645;56.968;24.196;2023-04-01T07:29:32;3.50;94.00
72604;DHT22;60645;56.968;24.196;2023-04-01T07:39:51;3.30;94.20
72604;DHT22;60645;56.968;24.196;2023-04-01T07:47:32;3.60;93.90
72604;DHT22;60645;56.968;24.196;2023-04-01T07:55:14;3.50;93.50
72604;DHT22;60645;56.968;24.196;2023-04-01T08:05:14;3.40;94.00
72604;DHT22;60645;56.968;24.196;2023-04-01T08:12:51;3.70;92.70
72604;DHT22;60645;56.968;24.196;2023-04-01T08:23:11;3.90;93.00
72604;DHT22;60645;56.968;24.196;2023-04-01T08:25:52;3.70;92.90
72604;DHT22;60645;56.968;24.196;2023-04-01T08:28:27;3.80;92.00
72604;DHT22;60645;56.968;24.196;2023-04-01T08:33:35;3.70;92.20
72604;DHT22;60645;56.968;24.196;2023-04-01T08:36:08;3.60;92.60
72604;DHT22;60645;56.968;24.196;2023-04-01T08:38:55;3.70;92.80
72604;DHT22;60645;56.968;24.196;2023-04-01T08:46:53;3.60;92.40
72604;DHT22;60645;56.968;24.196;2023-04-01T09:00:14;4.00;91.10
72604;DHT22;60645;56.968;24.196;2023-04-01T09:02:49;4.20;90.90
72604;DHT22;60645;56.968;24.196;2023-04-01T09:18:19;4.30;90.00
72604;DHT22;60645;56.968;24.196;2023-04-01T09:28:41;4.40;90.50
72604;DHT22;60645;56.968;24.196;2023-04-01T09:41:40;4.60;90.30
72604;DHT22;60645;56.968;24.196;2023-04-01T09:44:15;4.50;90.50
72604;DHT22;60645;56.968;24.196;2023-04-01T09:54:28;4.60;90.40
72604;DHT22;60645;56.968;24.196;2023-04-01T10:02:12;4.30;90.50
72604;DHT22;60645;56.968;24.196;2023-04-01T10:17:55;4.00;92.90
72604;DHT22;60645;56.968;24.196;2023-04-01T10:38:34;3.80;92.60
72604;DHT22;60645;56.968;24.196;2023-04-01T10:43:57;3.70;92.70
72604;DHT22;60645;56.968;24.196;2023-04-01T10:46:47;3.80;93.30
72604;DHT22;60645;56.968;24.196;2023-04-01T10:54:48;3.70;93.70
72604;DHT22;60645;56.968;24.196;2023-04-01T10:59:57;3.80;93.90
72604;DHT22;60645;56.968;24.196;2023-04-01T11:23:25;3.90;91.90
72604;DHT22;60645;56.968;24.196;2023-04-01T11:36:55;4.40;89.40
72604;DHT22;60645;56.968;24.196;2023-04-01T11:39:43;4.20;90.70
72604;DHT22;60645;56.968;24.196;2023-04-01T11:42:16;4.40;89.40
72604;DHT22;60645;56.968;24.196;2023-04-01T11:44:58;4.20;89.20
72604;DHT22;60645;56.968;24.196;2023-04-01T12:03:42;4.40;88.60
72604;DHT22;60645;56.968;24.196;2023-04-01T12:08:48;4.10;88.00
72604;DHT22;60645;56.968;24.196;2023-04-01T12:16:30;4.40;87.10
72604;DHT22;60645;56.968;24.196;2023-04-01T12:19:51;4.40;86.80
72604;DHT22;60645;56.968;24.196;2023-04-01T12:24:48;4.20;86.10
72604;DHT22;60645;56.968;24.196;2023-04-01T12:29:49;4.20;87.20
72604;DHT22;60645;56.968;24.196;2023-04-01T12:50:26;4.50;86.50
72604;DHT22;60645;56.968;24.196;2023-04-01T12:55:42;4.70;85.20
72604;DHT22;60645;56.968;24.196;2023-04-01T13:11:23;4.50;85.30
72604;DHT22;60645;56.968;24.196;2023-04-01T13:16:26;4.70;85.00
72604;DHT22;60645;56.968;24.196;2023-04-01T13:24:11;4.50;85.30
72604;DHT22;60645;56.968;24.196;2023-04-01T13:29:26;4.50;85.00
72604;DHT22;60645;56.968;24.196;2023-04-01T13:32:05;4.60;84.60
72604;DHT22;60645;56.968;24.196;2023-04-01T13:34:43;4.70;85.10
72604;DHT22;60645;56.968;24.196;2023-04-01T13:37:32;4.60;84.70
72604;DHT22;60645;56.968;24.196;2023-04-01T13:42:35;4.50;84.70
72604;DHT22;60645;56.968;24.196;2023-04-01T13:45:23;4.70;84.40
72604;DHT22;60645;56.968;24.196;2023-04-01T13:53:04;4.70;84.70
72604;DHT22;60645;56.968;24.196;2023-04-01T14:03:52;4.70;84.00
72604;DHT22;60645;56.968;24.196;2023-04-01T14:06:45;5.00;83.60
72604;DHT22;60645;56.968;24.196;2023-04-01T14:22:38;4.80;82.80
72604;DHT22;60645;56.968;24.196;2023-04-01T14:31:04;4.90;82.50
72604;DHT22;60645;56.968;24.196;2023-04-01T14:35:57;4.80;82.70
72604;DHT22;60645;56.968;24.196;2023-04-01T14:38:29;4.80;82.60
72604;DHT22;60645;56.968;24.196;2023-04-01T14:44:05;4.70;82.80
72604;DHT22;60645;56.968;24.196;2023-04-01T14:51:49;4.70;82.20
72604;DHT22;60645;56.968;24.196;2023-04-01T14:54:36;4.40;82.90
72604;DHT22;60645;56.968;24.196;2023-04-01T14:57:14;4.60;82.50
72604;DHT22;60645;56.968;24.196;2023-04-01T14:59:47;4.50;83.10
72604;DHT22;60645;56.968;24.196;2023-04-01T15:02:18;4.30;83.90
72604;DHT22;60645;56.968;24.196;2023-04-01T15:04:53;4.50;84.10
72604;DHT22;60645;56.968;24.196;2023-04-01T15:10:11;4.40;85.00
72604;DHT22;60645;56.968;24.196;2023-04-01T15:25:45;4.50;84.00
72604;DHT22;60645;56.968;24.196;2023-04-01T15:28:28;4.40;83.20
72604;DHT22;60645;56.968;24.196;2023-04-01T15:31:00;4.70;83.10
72604;DHT22;60645;56.968;24.196;2023-04-01T15:41:14;4.80;82.70
72604;DHT22;60645;56.968;24.196;2023-04-01T15:43:48;4.90;83.20
72604;DHT22;60645;56.968;24.196;2023-04-01T15:48:55;4.90;82.40
72604;DHT22;60645;56.968;24.196;2023-04-01T15:54:47;4.40;83.50
72604;DHT22;60645;56.968;24.196;2023-04-01T16:04:59;4.00;84.20
72604;DHT22;60645;56.968;24.196;2023-04-01T16:15:39;3.70;84.40
72604;DHT22;60645;56.968;24.196;2023-04-01T16:21:21;3.70;85.50
72604;DHT22;60645;56.968;24.196;2023-04-01T16:23:50;3.70;85.60
72604;DHT22;60645;56.968;24.196;2023-04-01T16:26:37;3.60;85.50
72604;DHT22;60645;56.968;24.196;2023-04-01T16:31:34;3.60;85.80
72604;DHT22;60645;56.968;24.196;2023-04-01T16:34:10;3.40;85.80
72604;DHT22;60645;56.968;24.196;2023-04-01T16:36:48;3.40;86.40
72604;DHT22;60645;56.968;24.196;2023-04-01T16:47:17;3.20;86.50
72604;DHT22;60645;56.968;24.196;2023-04-01T16:49:53;3.30;86.70
72604;DHT22;60645;56.968;24.196;2023-04-01T16:52:36;3.10;86.80
72604;DHT22;60645;56.968;24.196;2023-04-01T16:55:17;3.20;87.30
72604;DHT22;60645;56.968;24.196;2023-04-01T16:57:49;3.20;87.40
72604;DHT22;60645;56.968;24.196;2023-04-01T17:03:04;3.20;87.50
72604;DHT22;60645;56.968;24.196;2023-04-01T17:05:42;3.10;87.40
72604;DHT22;60645;56.968;24.196;2023-04-01T17:16:17;2.90;88.40
72604;DHT22;60645;56.968;24.196;2023-04-01T17:18:55;2.80;88.60
72604;DHT22;60645;56.968;24.196;2023-04-01T17:21:27;2.70;88.80
72604;DHT22;60645;56.968;24.196;2023-04-01T17:24:14;2.80;88.90
72604;DHT22;60645;56.968;24.196;2023-04-01T17:29:40;2.60;88.80
72604;DHT22;60645;56.968;24.196;2023-04-01T17:32:10;2.90;88.80
72604;DHT22;60645;56.968;24.196;2023-04-01T17:42:22;2.90;88.50
72604;DHT22;60645;56.968;24.196;2023-04-01T17:45:21;2.80;88.60
72604;DHT22;60645;56.968;24.196;2023-04-01T18:08:32;2.80;89.60
72604;DHT22;60645;56.968;24.196;2023-04-01T18:11:09;2.60;89.50
72604;DHT22;60645;56.968;24.196;2023-04-01T18:19:39;2.30;89.60
72604;DHT22;60645;56.968;24.196;2023-04-01T18:22:21;2.40;90.00
72604;DHT22;60645;56.968;24.196;2023-04-01T18:27:38;2.30;90.10
72604;DHT22;60645;56.968;24.196;2023-04-01T18:30:13;2.30;90.60
72604;DHT22;60645;56.968;24.196;2023-04-01T18:33:04;2.40;90.70
72604;DHT22;60645;56.968;24.196;2023-04-01T18:38:31;2.40;90.80
72604;DHT22;60645;56.968;24.196;2023-04-01T18:44:05;2.50;90.40
72604;DHT22;60645;56.968;24.196;2023-04-01T18:52:23;2.70;89.70
72604;DHT22;60645;56.968;24.196;2023-04-01T18:57:47;2.50;89.50
72604;DHT22;60645;56.968;24.196;2023-04-01T19:00:20;2.50;90.20
72604;DHT22;60645;56.968;24.196;2023-04-01T19:05:19;2.60;90.30
72604;DHT22;60645;56.968;24.196;2023-04-01T19:07:50;2.50;90.00
72604;DHT22;60645;56.968;24.196;2023-04-01T19:10:27;2.50;90.00
72604;DHT22;60645;56.968;24.196;2023-04-01T19:23:31;2.40;89.70
72604;DHT22;60645;56.968;24.196;2023-04-01T19:26:05;2.40;89.80
72604;DHT22;60645;56.968;24.196;2023-04-01T19:28:43;2.20;90.00
72604;DHT22;60645;56.968;24.196;2023-04-01T19:34:16;2.10;90.60
72604;DHT22;60645;56.968;24.196;2023-04-01T19:44:47;2.20;90.40
72604;DHT22;60645;56.968;24.196;2023-04-01T19:50:20;2.10;90.80
72604;DHT22;60645;56.968;24.196;2023-04-01T19:52:45;2.30;90.80
72604;DHT22;60645;56.968;24.196;2023-04-01T19:55:39;2.20;90.70
72604;DHT22;60645;56.968;24.196;2023-04-01T20:00:52;2.40;90.60
72604;DHT22;60645;56.968;24.196;2023-04-01T20:03:33;2.20;90.50
72604;DHT22;60645;56.968;24.196;2023-04-01T20:16:53;2.00;90.90
72604;DHT22;60645;56.968;24.196;2023-04-01T20:19:39;2.10;90.70
72604;DHT22;60645;56.968;24.196;2023-04-01T20:25:19;2.20;91.00
72604;DHT22;60645;56.968;24.196;2023-04-01T20:44:04;2.30;90.70
72604;DHT22;60645;56.968;24.196;2023-04-01T20:52:19;2.20;91.00
72604;DHT22;60645;56.968;24.196;2023-04-01T20:58:09;2.00;91.40
72604;DHT22;60645;56.968;24.196;2023-04-01T21:03:27;1.90;91.80
72604;DHT22;60645;56.968;24.196;2023-04-01T21:09:11;2.10;91.80
72604;DHT22;60645;56.968;24.196;2023-04-01T21:27:53;2.00;91.60
72604;DHT22;60645;56.968;24.196;2023-04-01T21:38:31;2.10;91.70
72604;DHT22;60645;56.968;24.196;2023-04-01T21:41:11;2.10;91.60
72604;DHT22;60645;56.968;24.196;2023-04-01T21:44:20;2.30;91.20
72604;DHT22;60645;56.968;24.196;2023-04-01T21:55:35;2.10;90.90
72604;DHT22;60645;56.968;24.196;2023-04-01T22:09:34;2.30;91.10
72604;DHT22;60645;56.968;24.196;2023-04-01T22:12:07;2.10;91.00
72604;DHT22;60645;56.968;24.196;2023-04-01T22:22:15;1.90;90.50
72604;DHT22;60645;56.968;24.196;2023-04-01T22:25:08;2.00;90.60
72604;DHT22;60645;56.968;24.196;2023-04-01T22:27:54;1.90;90.70
72604;DHT22;60645;56.968;24.196;2023-04-01T22:30:26;2.00;90.50
72604;DHT22;60645;56.968;24.196;2023-04-01T22:43:58;1.90;90.50
72604;DHT22;60645;56.968;24.196;2023-04-01T22:46:30;2.20;90.60
72604;DHT22;60645;56.968;24.196;2023-04-01T22:52:38;2.00;90.50
72604;DHT22;60645;56.968;24.196;2023-04-01T22:55:10;1.90;90.50
72604;DHT22;60645;56.968;24.196;2023-04-01T22:57:49;1.90;90.50
72604;DHT22;60645;56.968;24.196;2023-04-01T23:00:32;1.90;90.70
72604;DHT22;60645;56.968;24.196;2023-04-01T23:05:50;2.00;90.50
72604;DHT22;60645;56.968;24.196;2023-04-01T23:11:19;1.90;90.60
72604;DHT22;60645;56.968;24.196;2023-04-01T23:16:37;2.00;90.40
72604;DHT22;60645;56.968;24.196;2023-04-01T23:22:02;2.00;90.40
72604;DHT22;60645;56.968;24.196;2023-04-01T23:24:54;1.90;90.00
72604;DHT22;60645;56.968;24.196;2023-04-01T23:29:57;2.20;89.60
72604;DHT22;60645;56.968;24.196;2023-04-01T23:32:25;2.00;89.80
72604;DHT22;60645;56.968;24.196;2023-04-01T23:34:56;2.40;89.40
72604;DHT22;60645;56.968;24.196;2023-04-01T23:37:23;2.10;89.30
72604;DHT22;60645;56.968;24.196;2023-04-01T23:39:58;2.00;89.20
72604;DHT22;60645;56.968;24.196;2023-04-01T23:42:37;2.10;89.20
72604;DHT22;60645;56.968;24.196;2023-04-01T23:45:13;1.90;89.30
72604;DHT22;60645;56.968;24.196;2023-04-01T23:47:45;1.90;88.40
72604;DHT22;60645;56.968;24.196;2023-04-01T23:50:23;2.00;88.20
72604;DHT22;60645;56.968;24.196;2023-04-01T23:53:02;2.00;87.70
72604;DHT22;60645;56.968;24.196;2023-04-01T23:55:33;2.00;88.00
